createdAt,value
2022-09-28T00:02:03.066Z,0.90
2022-09-28T00:07:24.929Z,1.15
2022-09-28T00:12:46.630Z,0.80
2022-09-28T00:18:08.352Z,0.70
2022-09-28T00:23:30.157Z,0.75
2022-09-28T00:28:53.611Z,0.90
2022-09-28T00:34:16.000Z,0.77
2022-09-28T00:39:41.215Z,0.70
2022-09-28T00:45:03.017Z,0.80
2022-09-28T00:50:29.034Z,0.77
2022-09-28T00:55:57.097Z,0.60
2022-09-28T01:01:18.908Z,0.77
2022-09-28T01:06:40.804Z,0.65
2022-09-28T01:12:02.790Z,1.00
2022-09-28T01:17:24.573Z,1.08
2022-09-28T01:23:17.198Z,0.80
2022-09-28T01:28:42.967Z,0.85
2022-09-28T01:34:13.049Z,0.90
2022-09-28T01:39:39.946Z,1.00
2022-09-28T01:45:07.849Z,0.83
2022-09-28T01:50:35.105Z,0.98
2022-09-28T01:56:03.652Z,1.13
2022-09-28T02:01:34.983Z,0.80
2022-09-28T02:07:02.372Z,1.10
2022-09-28T02:12:26.574Z,1.20
2022-09-28T02:17:49.080Z,1.58
2022-09-28T02:23:11.212Z,1.30
2022-09-28T02:28:32.997Z,1.40
2022-09-28T02:33:57.704Z,1.30
2022-09-28T02:39:19.521Z,1.42
2022-09-28T02:44:53.901Z,1.15
2022-09-28T02:50:24.037Z,1.20
2022-09-28T02:56:20.448Z,1.33
2022-09-28T03:02:00.506Z,1.13
2022-09-28T03:07:27.931Z,1.50
2022-09-28T03:12:52.945Z,1.33
2022-09-28T03:18:14.680Z,1.23
2022-09-28T03:23:36.413Z,1.13
2022-09-28T03:28:58.094Z,1.10
2022-09-28T03:34:19.773Z,0.90
2022-09-28T03:39:41.487Z,0.77
2022-09-28T03:45:03.528Z,1.10
2022-09-28T03:50:25.248Z,1.15
2022-09-28T03:55:46.989Z,1.20
2022-09-28T04:01:17.626Z,1.10
2022-09-28T04:06:40.267Z,1.10
2022-09-28T04:12:04.349Z,0.90
2022-09-28T04:17:26.426Z,0.60
2022-09-28T04:22:48.197Z,0.82
2022-09-28T04:28:28.300Z,0.90
2022-09-28T04:33:50.169Z,0.80
2022-09-28T04:39:13.176Z,0.83
2022-09-28T04:44:34.933Z,0.80
2022-09-28T04:49:56.734Z,0.60
2022-09-28T04:55:18.431Z,0.80
2022-09-28T05:00:40.134Z,0.70
2022-09-28T05:06:02.287Z,0.80
2022-09-28T05:11:24.156Z,0.80
2022-09-28T05:16:46.111Z,0.88
2022-09-28T05:22:11.473Z,0.68
2022-09-28T05:27:33.182Z,1.00
2022-09-28T05:32:54.890Z,0.75
2022-09-28T05:38:16.657Z,0.70
2022-09-28T05:43:39.394Z,1.23
2022-09-28T05:49:01.111Z,0.93
2022-09-28T05:54:22.865Z,0.90
2022-09-28T05:59:44.542Z,1.08
2022-09-28T06:05:06.480Z,0.95
2022-09-28T06:10:28.646Z,0.88
2022-09-28T06:15:50.438Z,0.95
2022-09-28T06:21:15.280Z,1.23
2022-09-28T06:26:36.989Z,0.80
2022-09-28T06:31:58.738Z,1.05
2022-09-28T06:37:20.488Z,1.08
2022-09-28T06:42:42.196Z,1.05
2022-09-28T06:48:05.108Z,1.23
2022-09-28T06:53:28.740Z,0.90
2022-09-28T06:58:50.451Z,0.98
2022-09-28T07:04:12.126Z,1.30
2022-09-28T07:09:37.309Z,1.30
2022-09-28T07:15:03.855Z,1.65
2022-09-28T07:20:26.208Z,1.85
2022-09-28T07:25:50.173Z,1.80
2022-09-28T07:31:12.206Z,1.38
2022-09-28T07:36:35.174Z,2.03
2022-09-28T07:42:02.429Z,1.98
2022-09-28T07:47:34.660Z,2.20
2022-09-28T07:52:57.620Z,2.20
2022-09-28T07:58:20.824Z,1.92
2022-09-28T08:03:48.001Z,1.45
2022-09-28T08:09:09.741Z,2.10
2022-09-28T08:14:34.275Z,2.08
2022-09-28T08:20:14.402Z,1.60
2022-09-28T08:25:38.196Z,2.20
2022-09-28T08:31:03.876Z,1.92
2022-09-28T08:36:25.633Z,2.03
2022-09-28T08:42:23.018Z,1.92
2022-09-28T08:48:15.133Z,2.08
2022-09-28T08:54:14.469Z,2.05
2022-09-28T08:59:58.447Z,2.03
2022-09-28T09:05:29.396Z,1.73
2022-09-28T09:11:22.708Z,1.70
2022-09-28T09:17:12.748Z,2.00
2022-09-28T09:22:49.359Z,1.88
2022-09-28T09:28:48.321Z,1.90
2022-09-28T09:34:25.937Z,1.92
2022-09-28T09:40:02.175Z,2.08
2022-09-28T09:45:30.062Z,2.25
2022-09-28T09:50:59.126Z,1.80
2022-09-28T09:56:34.529Z,2.10
2022-09-28T10:01:56.676Z,2.00
2022-09-28T10:07:24.127Z,1.80
2022-09-28T10:12:46.588Z,1.88
2022-09-28T10:18:14.307Z,2.00
2022-09-28T10:23:37.868Z,2.00
2022-09-28T10:29:04.198Z,2.05
2022-09-28T10:34:28.636Z,2.28
2022-09-28T10:39:55.787Z,2.67
2022-09-28T10:45:23.305Z,2.53
2022-09-28T10:50:57.869Z,1.48
2022-09-28T10:56:23.080Z,1.77
2022-09-28T11:01:44.918Z,1.63
2022-09-28T11:07:18.000Z,1.73
2022-09-28T11:12:44.168Z,1.63
2022-09-28T11:18:25.265Z,1.67
2022-09-28T11:24:07.290Z,2.08
2022-09-28T11:29:43.130Z,1.85
2022-09-28T11:35:16.845Z,1.85
2022-09-28T11:40:51.365Z,2.13
2022-09-28T11:46:19.663Z,1.70
2022-09-28T11:51:43.766Z,1.55
2022-09-28T11:57:11.144Z,1.80
2022-09-28T12:03:00.575Z,1.70
2022-09-28T12:08:40.105Z,1.48
2022-09-28T12:14:04.918Z,1.88
2022-09-28T12:19:39.890Z,1.48
2022-09-28T12:25:03.774Z,1.40
2022-09-28T12:30:30.818Z,1.33
2022-09-28T12:36:07.688Z,1.40
2022-09-28T12:41:55.821Z,1.40
2022-09-28T12:47:55.187Z,1.00
2022-09-28T12:53:41.809Z,1.10
2022-09-28T12:59:23.496Z,0.80
2022-09-28T13:05:05.629Z,1.17
2022-09-28T13:10:36.811Z,1.17
2022-09-28T13:16:05.725Z,0.90
2022-09-28T13:21:40.866Z,1.05
2022-09-28T13:27:10.292Z,0.82
2022-09-28T13:32:33.824Z,1.20
2022-09-28T13:38:17.432Z,1.10
2022-09-28T13:44:10.660Z,1.38
2022-09-28T13:49:48.029Z,2.75
2022-09-28T13:55:28.722Z,1.85
2022-09-28T14:01:13.626Z,4.35
2022-09-28T14:06:35.458Z,1.60
2022-09-28T14:12:49.543Z,1.10
2022-09-28T14:18:16.973Z,1.30
2022-09-28T14:23:50.613Z,1.05
2022-09-28T14:29:28.540Z,1.20
2022-09-28T14:35:00.325Z,0.95
2022-09-28T14:40:49.765Z,1.25
2022-09-28T14:46:11.960Z,1.13
2022-09-28T14:51:35.353Z,1.20
2022-09-28T14:57:04.175Z,2.72
2022-09-28T15:02:36.047Z,1.40
2022-09-28T15:07:58.275Z,3.70
2022-09-28T15:13:25.004Z,1.33
2022-09-28T15:19:18.689Z,1.42
2022-09-28T15:24:46.062Z,0.98
2022-09-28T15:30:33.633Z,1.08
2022-09-28T15:36:02.477Z,1.48
2022-09-28T15:41:25.649Z,1.23
2022-09-28T15:46:56.984Z,1.10
2022-09-28T15:52:35.977Z,1.27
2022-09-28T15:58:13.238Z,1.10
2022-09-28T16:03:35.025Z,1.08
2022-09-28T16:08:56.719Z,1.25
2022-09-28T16:14:21.932Z,1.35
2022-09-28T16:19:43.771Z,1.20
2022-09-28T16:25:05.780Z,1.30
2022-09-28T16:30:32.292Z,1.40
2022-09-28T16:35:54.023Z,1.00
2022-09-28T16:41:19.469Z,1.45
2022-09-28T16:46:44.298Z,1.08
2022-09-28T16:52:13.335Z,1.70
2022-09-28T16:57:35.400Z,1.30
2022-09-28T17:02:58.462Z,1.27
2022-09-28T17:08:23.038Z,1.40
2022-09-28T17:13:45.963Z,1.30
2022-09-28T17:19:23.272Z,1.80
2022-09-28T17:24:46.120Z,1.90
2022-09-28T17:30:09.921Z,1.60
2022-09-28T17:35:34.101Z,1.98
2022-09-28T17:40:58.013Z,2.10
2022-09-28T17:46:27.226Z,2.03
2022-09-28T17:51:50.242Z,2.13
2022-09-28T17:57:11.936Z,1.80
2022-09-28T18:02:33.690Z,2.20
2022-09-28T18:07:55.990Z,2.22
2022-09-28T18:13:17.682Z,2.25
2022-09-28T18:18:39.901Z,2.65
2022-09-28T18:24:01.830Z,3.47
2022-09-28T18:29:23.574Z,2.47
2022-09-28T18:34:45.545Z,2.95
2022-09-28T18:40:09.396Z,3.50
2022-09-28T18:45:31.321Z,3.00
2022-09-28T18:50:53.013Z,3.35
2022-09-28T18:56:20.947Z,3.90
2022-09-28T19:01:43.520Z,3.90
2022-09-28T19:07:09.001Z,3.80
2022-09-28T19:12:34.807Z,3.97
2022-09-28T19:17:57.093Z,4.05
2022-09-28T19:23:18.817Z,3.50
2022-09-28T19:28:40.530Z,3.67
2022-09-28T19:34:02.567Z,3.38
2022-09-28T19:39:24.335Z,4.07
2022-09-28T19:44:46.409Z,4.07
2022-09-28T19:50:10.195Z,4.18
2022-09-28T19:55:37.113Z,4.13
2022-09-28T20:00:59.259Z,4.20
2022-09-28T20:06:22.826Z,3.80
2022-09-28T20:11:46.587Z,3.78
2022-09-28T20:17:09.583Z,3.30
2022-09-28T20:22:31.443Z,3.10
2022-09-28T20:27:53.535Z,3.35
2022-09-28T20:33:19.099Z,2.90
2022-09-28T20:38:51.536Z,3.22
2022-09-28T20:44:13.371Z,3.30
2022-09-28T20:49:35.112Z,3.25
2022-09-28T20:54:56.853Z,3.03
2022-09-28T21:00:18.661Z,3.13
2022-09-28T21:05:40.428Z,3.20
2022-09-28T21:11:02.246Z,4.30
2022-09-28T21:16:27.182Z,4.03
2022-09-28T21:21:48.933Z,4.15
2022-09-28T21:27:10.651Z,4.25
2022-09-28T21:32:35.183Z,3.22
2022-09-28T21:37:57.221Z,3.15
2022-09-28T21:43:18.937Z,3.13
2022-09-28T21:48:41.264Z,3.27
2022-09-28T21:54:03.235Z,3.35
2022-09-28T21:59:25.076Z,2.78
2022-09-28T22:04:46.912Z,2.40
2022-09-28T22:10:12.655Z,2.85
2022-09-28T22:15:34.485Z,2.90
2022-09-28T22:21:30.020Z,2.70
2022-09-28T22:26:51.844Z,3.73
2022-09-28T22:32:13.598Z,5.07
2022-09-28T22:37:35.329Z,7.32
2022-09-28T22:42:57.040Z,4.00
2022-09-28T22:48:18.763Z,2.60
2022-09-28T22:53:40.485Z,2.97
2022-09-28T22:59:02.268Z,3.00
2022-09-28T23:04:24.001Z,2.97
2022-09-28T23:09:45.721Z,2.70
2022-09-28T23:15:08.443Z,2.85
2022-09-28T23:20:30.259Z,3.33
2022-09-28T23:25:53.064Z,2.90
2022-09-28T23:31:20.689Z,2.75
2022-09-28T23:36:42.430Z,3.05
2022-09-28T23:42:04.414Z,3.22
2022-09-28T23:47:26.484Z,2.88
2022-09-28T23:52:48.453Z,3.40
2022-09-28T23:58:11.621Z,2.72
